الصفحة الرئيسية
METAR-TAF:

METAR-TAF

مطار :

مطار سكوبية الدولي

سكوبيه, مقدونيا

دائرة عرض: 41-58N, خط طول: 021-39E, ارتفاع: 238 متر

مراقبة الطقس الحالي

تاريخ ووقت الإصدار 39 دقيقة قبل الساعة 05:50UTC
ريح 4 عقدة من الشرق, الاتجاه يتراوح بين الشرق/الشمال الشرقي و الجنوب الشرقي
درجة الحرارة 11°درجة مئوية
الرطوبة 87%
ضغط 1020 hPa
الرؤية 10 كم أو أكثر
غيوم قليلة على ارتفاع 2500 قدم
ملبد بالغيوم على ارتفاع 5000 قدم

METAR: LWSK 290550Z 09004KT 060V130 9999 FEW025 OVC050 11/09 Q1020 NOSIG

زمن: 07:29 (06:29 UTC)

توقعات

تاريخ ووقت الإصدار 49 دقيقة قبل الساعة 05:40UTC
التوقعات صالحة من29 الساعة 06 UTC إلى 01 الساعة 06 UTC
ريح 2 عقدةمن اتجاهات متغيرة
الرؤية 10 كم أو أكثر
غيوم قليلة على ارتفاع 3000 قدم
غيوم مفككة على ارتفاع 6000 قدم
مؤقت
من 29 الساعة 11 UTC إلى 01 الساعة 01 UTC
ريح 15 عقدة من الجنوب/الجنوب الشرقي
مؤقت
من 29 الساعة 20 UTC إلى 01 الساعة 06 UTC
غيوم مفككة على ارتفاع 3000 قدم
ملبد بالغيوم على ارتفاع 7000 قدم
مطر,

TAF: LWSK 290540Z 2906/0106 VRB02KT 9999 FEW030 BKN060 TEMPO 2911/0101 16015KT TEMPO 2920/0106 RA BKN030 OVC070

أرصاد الطقس والتوقعات من أكثر من 4000 مطار (تقارير الطقس للمطار METAR والتنبؤ بالطقس بالمطارTAF).

المحطات المتاحة هي النقط الصفراء والحمراء على الخريطة.

حرك المؤشر فوق النقطة لمعرفة اسم المحطة.

ثم انقر لمعرفة أرصاد وتوقعات الطقس.

لتغيير الخارطة: اضغط على الأزرار الخضراء مع رمز الصليب الأسود للتكبير. على الزر الأخضر مع شرطة للتصغير، أو على الأسهم الخضراء للخرائط المجاورة.


METAR-TAF: